Time;durP1;ratioP1;P1;durP2;ratioP2;P2;SDS_P1;SDS_P2;PMS_P1;PMS_P2;Temp;Humidity;BMP_temperature;BMP_pressure;BME280_temperature;BME280_humidity;BME280_pressure;Samples;Min_cycle;Max_cycle;Signal;HPM_P1;HPM_P2
2023/05/01 00:02:11;;;;;;;17.57;7.60;;;;;;;8.17;56.27;100327.84;125125;1086;104367;-79
2023/05/01 00:04:39;;;;;;;19.53;7.67;;;;;;;8.12;56.38;100325.84;125178;1086;104854;-79
2023/05/01 00:07:08;;;;;;;22.77;8.37;;;;;;;8.08;56.49;100332.67;125323;1086;104755;-78
2023/05/01 00:09:36;;;;;;;16.85;7.40;;;;;;;8.04;56.62;100328.13;125083;1086;104250;-78
2023/05/01 00:12:05;;;;;;;19.20;7.63;;;;;;;8.01;56.08;100327.99;125032;1086;104491;-78
2023/05/01 00:14:34;;;;;;;17.27;7.37;;;;;;;7.98;56.44;100331.39;124894;1086;105837;-78
2023/05/01 00:17:02;;;;;;;16.73;7.50;;;;;;;7.96;56.54;100333.02;124841;1086;104270;-78
2023/05/01 00:19:31;;;;;;;18.73;7.50;;;;;;;7.92;56.78;100329.39;124937;1086;104376;-78
2023/05/01 00:22:00;;;;;;;18.30;7.77;;;;;;;7.87;57.92;100330.92;125113;1085;104215;-78
2023/05/01 00:24:28;;;;;;;17.53;7.43;;;;;;;7.84;57.54;100335.13;124978;1086;105648;-79
2023/05/01 00:26:57;;;;;;;19.20;8.00;;;;;;;7.78;57.75;100340.96;125055;1086;104428;-79
2023/05/01 00:29:26;;;;;;;24.13;7.63;;;;;;;7.76;58.24;100341.70;125068;1085;104232;-78
2023/05/01 00:31:55;;;;;;;16.53;7.40;;;;;;;7.70;58.31;100340.62;125083;1086;104238;-77
2023/05/01 00:34:24;;;;;;;18.40;8.20;;;;;;;7.67;57.58;100337.88;124963;1086;104726;-77
2023/05/01 00:36:52;;;;;;;18.87;7.73;;;;;;;7.65;57.92;100341.23;124906;1086;104207;-77
2023/05/01 00:39:21;;;;;;;17.70;7.07;;;;;;;7.65;57.68;100336.92;124867;1086;104478;-78
2023/05/01 00:41:49;;;;;;;17.10;7.47;;;;;;;7.64;57.81;100334.23;124916;1086;104640;-78
2023/05/01 00:44:18;;;;;;;17.67;7.90;;;;;;;7.64;58.01;100340.34;124885;1086;104231;-78
2023/05/01 00:46:47;;;;;;;17.90;7.27;;;;;;;7.63;57.94;100335.05;124873;1086;104264;-78
2023/05/01 00:49:16;;;;;;;14.70;6.77;;;;;;;7.63;58.10;100340.27;124995;1086;104261;-79
2023/05/01 00:51:48;;;;;;;16.85;6.40;;;;;;;7.63;58.56;100342.89;124979;1086;104165;-79
2023/05/01 00:54:17;;;;;;;15.70;6.67;;;;;;;7.58;60.12;100368.80;125066;1086;104274;-79
2023/05/01 00:56:47;;;;;;;18.70;7.90;;;;;;;7.52;61.25;100385.06;124897;1086;104333;-78
2023/05/01 00:59:15;;;;;;;18.80;7.37;;;;;;;7.38;60.23;100373.97;125048;1085;104235;-78
2023/05/01 01:01:44;;;;;;;17.33;7.33;;;;;;;7.31;60.97;100376.26;124923;1086;104293;-77
2023/05/01 01:04:13;;;;;;;17.87;7.00;;;;;;;7.28;61.38;100389.17;124973;1086;104366;-78
2023/05/01 01:06:48;;;;;;;17.50;7.20;;;;;;;7.25;60.93;100376.86;125027;1086;104289;-77
2023/05/01 01:09:28;;;;;;;20.57;6.87;;;;;;;7.23;60.65;100361.94;125024;1086;104241;-78
2023/05/01 01:12:08;;;;;;;16.35;6.60;;;;;;;7.22;60.30;100370.61;124960;1086;104366;-78
2023/05/01 01:14:45;;;;;;;15.67;6.87;;;;;;;7.21;60.24;100361.86;124942;1086;104350;-78
2023/05/01 01:17:20;;;;;;;16.45;6.60;;;;;;;7.19;60.68;100372.23;125185;1086;109316;-79
2023/05/01 01:20:18;;;;;;;14.53;6.40;;;;;;;7.14;60.39;100357.20;124981;1086;104414;-80
2023/05/01 01:22:57;;;;;;;14.73;6.47;;;;;;;7.11;61.25;100357.94;124931;1085;104693;-79
2023/05/01 01:26:01;;;;;;;13.03;6.00;;;;;;;7.08;61.33;100351.69;124933;1086;104264;-78
2023/05/01 01:29:19;;;;;;;12.30;5.50;;;;;;;7.07;61.52;100355.98;124922;1086;104373;-77
2023/05/01 01:31:57;;;;;;;13.80;6.13;;;;;;;7.02;61.30;100342.73;124757;1086;104369;-78
2023/05/01 01:34:32;;;;;;;12.47;5.63;;;;;;;7.04;62.52;100360.18;124904;1086;104264;-79
2023/05/01 01:37:07;;;;;;;15.33;5.67;;;;;;;7.00;61.98;100359.15;124859;1086;105572;-78
2023/05/01 01:39:45;;;;;;;13.93;5.70;;;;;;;6.99;61.97;100349.52;124908;1086;104279;-77
2023/05/01 01:42:19;;;;;;;14.97;5.47;;;;;;;6.98;62.23;100366.91;124920;1086;104299;-77
2023/05/01 01:44:52;;;;;;;20.90;5.97;;;;;;;6.94;62.10;100372.78;124887;1086;104327;-78
2023/05/01 01:47:27;;;;;;;15.63;6.00;;;;;;;6.91;62.24;100372.63;124907;1086;104302;-77
2023/05/01 01:49:57;;;;;;;19.17;6.07;;;;;;;6.89;62.28;100362.94;124942;1086;104318;-78
2023/05/01 01:52:28;;;;;;;15.87;5.73;;;;;;;6.87;63.33;100378.51;124930;1086;104239;-78
2023/05/01 01:55:05;;;;;;;15.30;5.87;;;;;;;6.83;62.67;100371.38;124954;1086;104364;-78
2023/05/01 01:57:36;;;;;;;14.53;6.13;;;;;;;6.80;62.34;100377.33;124801;1086;104312;-78
2023/05/01 02:00:10;;;;;;;11.20;5.63;;;;;;;6.77;63.33;100385.00;125103;1086;104251;-78
2023/05/01 02:02:42;;;;;;;12.27;5.40;;;;;;;6.72;62.86;100388.22;124929;1085;104235;-78
2023/05/01 02:05:15;;;;;;;10.55;4.80;;;;;;;6.68;64.04;100387.16;124995;1086;104698;-78
2023/05/01 02:07:47;;;;;;;13.60;5.50;;;;;;;6.63;63.67;100384.32;124995;1086;104363;-77
2023/05/01 02:10:17;;;;;;;14.10;5.40;;;;;;;6.62;63.50;100390.38;124821;1086;104331;-78
2023/05/01 02:12:48;;;;;;;11.70;5.45;;;;;;;6.59;63.85;100387.61;124979;1086;104386;-79
2023/05/01 02:15:19;;;;;;;13.40;5.30;;;;;;;6.58;63.64;100385.81;124831;1086;104222;-78
2023/05/01 02:17:49;;;;;;;12.73;5.23;;;;;;;6.60;64.16;100393.71;124849;1086;104322;-78
2023/05/01 02:20:20;;;;;;;12.20;4.90;;;;;;;6.57;63.87;100399.66;125005;1086;104168;-79
2023/05/01 02:22:51;;;;;;;14.23;5.47;;;;;;;6.54;63.58;100399.50;124977;1086;104354;-79
2023/05/01 02:25:20;;;;;;;14.47;5.17;;;;;;;6.53;63.90;100399.42;124948;1085;104366;-79
2023/05/01 02:27:55;;;;;;;13.60;5.10;;;;;;;6.52;64.73;100403.75;124931;1086;104220;-78
2023/05/01 02:30:24;;;;;;;13.37;5.53;;;;;;;6.52;64.35;100411.58;124922;1086;104248;-78
2023/05/01 02:32:52;;;;;;;15.57;5.30;;;;;;;6.53;63.94;100413.37;124945;1086;104235;-78
2023/05/01 02:35:21;;;;;;;10.67;4.93;;;;;;;6.54;63.90;100416.86;124884;1086;104828;-78
2023/05/01 02:37:50;;;;;;;15.73;5.67;;;;;;;6.56;64.26;100417.83;124832;1086;104646;-78
2023/05/01 02:40:39;;;;;;;13.90;5.33;;;;;;;6.58;64.83;100416.22;124892;1086;104401;-78
2023/05/01 02:43:12;;;;;;;15.33;5.30;;;;;;;6.58;64.55;100426.64;125105;1086;104321;-79
2023/05/01 02:45:42;;;;;;;14.20;5.10;;;;;;;6.58;64.13;100431.86;125026;1086;104730;-80
2023/05/01 02:48:16;;;;;;;12.30;5.30;;;;;;;6.62;64.39;100433.78;125046;1086;104365;-80
2023/05/01 02:50:46;;;;;;;16.67;5.63;;;;;;;6.65;64.39;100427.03;124872;1086;104425;-78
2023/05/01 02:53:15;;;;;;;13.10;5.47;;;;;;;6.69;63.69;100432.40;124938;1086;104296;-78
2023/05/01 02:55:57;;;;;;;12.77;5.53;;;;;;;6.74;63.77;100437.01;124923;1086;104193;-78
2023/05/01 02:58:25;;;;;;;13.37;5.40;;;;;;;6.79;64.11;100429.41;124885;1086;104349;-78
2023/05/01 03:00:54;;;;;;;15.87;5.03;;;;;;;6.80;64.05;100434.70;124888;1086;104418;-80
2023/05/01 03:03:23;;;;;;;14.23;5.60;;;;;;;6.82;64.40;100432.17;125084;1086;104354;-77
2023/05/01 03:05:51;;;;;;;14.37;6.33;;;;;;;6.82;64.65;100440.91;124688;1085;104436;-76
2023/05/01 03:08:20;;;;;;;13.00;5.95;;;;;;;6.83;64.45;100445.30;124851;1086;104219;-76
2023/05/01 03:10:48;;;;;;;15.10;6.13;;;;;;;6.84;64.63;100447.09;124885;1086;104354;-77
2023/05/01 03:13:17;;;;;;;16.53;6.30;;;;;;;6.87;65.01;100448.05;124870;1086;104360;-78
2023/05/01 03:15:45;;;;;;;16.37;6.37;;;;;;;6.87;65.80;100454.16;124868;1086;104376;-77
2023/05/01 03:18:14;;;;;;;16.13;6.63;;;;;;;6.89;65.83;100455.15;124964;1086;105581;-77
2023/05/01 03:20:52;;;;;;;15.63;6.43;;;;;;;6.93;65.33;100445.75;124922;1086;104294;-78
2023/05/01 03:23:20;;;;;;;13.33;6.60;;;;;;;6.99;65.58;100457.37;124904;1086;104273;-77
2023/05/01 03:25:49;;;;;;;17.53;6.63;;;;;;;7.06;65.31;100455.98;124759;1086;104343;-78
2023/05/01 03:28:18;;;;;;;17.53;7.10;;;;;;;7.13;66.04;100458.05;124776;1086;104344;-77
2023/05/01 03:30:46;;;;;;;17.87;7.60;;;;;;;7.20;66.74;100460.16;124842;1086;104274;-77
2023/05/01 03:33:15;;;;;;;15.83;7.33;;;;;;;7.28;67.34;100467.47;124961;1086;104212;-77
2023/05/01 03:35:43;;;;;;;18.87;7.73;;;;;;;7.36;67.97;100473.95;124972;1086;104264;-78
2023/05/01 03:38:12;;;;;;;17.37;7.70;;;;;;;7.42;67.66;100470.71;124936;1086;104394;-78
2023/05/01 03:40:59;;;;;;;16.87;7.53;;;;;;;7.51;67.77;100476.38;124983;1086;104212;-78
2023/05/01 03:43:28;;;;;;;20.70;8.23;;;;;;;7.59;67.90;100474.13;124925;1086;104315;-78
2023/05/01 03:45:57;;;;;;;19.23;9.07;;;;;;;7.67;69.56;100475.41;124834;1086;104385;-78
2023/05/01 03:48:26;;;;;;;19.40;8.75;;;;;;;7.77;69.56;100479.33;124982;1086;104296;-78
2023/05/01 03:50:55;;;;;;;18.43;8.73;;;;;;;7.86;69.43;100478.03;124995;1086;104372;-78
2023/05/01 03:53:25;;;;;;;18.77;8.40;;;;;;;7.95;69.35;100481.89;124907;1086;104359;-77
2023/05/01 03:55:54;;;;;;;19.17;8.87;;;;;;;8.05;69.92;100481.50;124667;1086;104331;-78
2023/05/01 03:58:23;;;;;;;19.03;9.17;;;;;;;8.16;70.41;100477.64;124770;1086;104407;-78
2023/05/01 04:00:55;;;;;;;19.73;9.20;;;;;;;8.27;69.46;100483.34;124848;1086;104306;-77
2023/05/01 04:03:24;;;;;;;20.60;9.95;;;;;;;8.37;70.25;100496.02;124874;1086;104395;-77
2023/05/01 04:05:54;;;;;;;20.40;9.90;;;;;;;8.48;70.21;100491.30;124587;1086;104334;-77
2023/05/01 04:08:22;;;;;;;20.30;10.03;;;;;;;8.57;69.85;100491.70;124627;1086;104430;-76
2023/05/01 04:10:51;;;;;;;21.03;10.40;;;;;;;8.67;71.46;100487.75;124713;1086;104296;-77
2023/05/01 04:13:19;;;;;;;23.80;10.90;;;;;;;8.76;70.68;100498.61;124763;1086;104350;-77
2023/05/01 04:15:48;;;;;;;22.50;11.33;;;;;;;8.86;70.43;100494.66;124921;1086;104369;-77
2023/05/01 04:18:17;;;;;;;22.33;11.40;;;;;;;8.96;71.22;100502.08;124992;1086;104297;-79
2023/05/01 04:20:45;;;;;;;22.30;10.83;;;;;;;9.07;72.27;100509.47;124777;1086;104279;-77
2023/05/01 04:23:14;;;;;;;25.40;11.07;;;;;;;9.17;71.58;100501.18;124693;1086;104354;-78
2023/05/01 04:25:42;;;;;;;21.35;10.90;;;;;;;9.27;72.32;100510.30;124870;1086;104241;-78
2023/05/01 04:28:14;;;;;;;21.73;11.93;;;;;;;9.39;71.62;100502.95;124951;1085;104373;-78
2023/05/01 04:30:42;;;;;;;23.87;12.03;;;;;;;9.56;73.92;100510.60;124788;1086;104306;-76
2023/05/01 04:33:11;;;;;;;24.17;11.10;;;;;;;9.68;74.92;100497.99;124785;1086;104303;-77
2023/05/01 04:35:41;;;;;;;23.43;12.47;;;;;;;9.80;73.90;100502.80;124895;1086;104331;-77
2023/05/01 04:38:09;;;;;;;23.10;12.33;;;;;;;9.95;74.04;100506.02;124847;1086;104371;-77
2023/05/01 04:40:38;;;;;;;24.53;12.33;;;;;;;10.12;74.57;100517.14;124941;1086;104286;-77
2023/05/01 04:43:07;;;;;;;24.77;13.53;;;;;;;10.30;74.64;100509.08;124797;1086;104264;-78
2023/05/01 04:45:37;;;;;;;24.43;12.93;;;;;;;10.51;74.07;100523.84;124740;1086;104426;-78
2023/05/01 04:48:06;;;;;;;24.23;12.93;;;;;;;10.69;74.57;100516.63;125009;1086;104356;-78
2023/05/01 04:50:36;;;;;;;25.47;13.60;;;;;;;10.85;75.26;100522.42;125109;1086;104282;-77
2023/05/01 04:53:05;;;;;;;24.80;12.90;;;;;;;10.94;74.74;100535.87;124975;1086;104366;-78
2023/05/01 04:55:34;;;;;;;26.47;13.00;;;;;;;11.00;74.48;100541.34;125091;1086;104155;-77
2023/05/01 04:58:10;;;;;;;23.37;12.13;;;;;;;11.02;73.97;100536.14;125183;1086;104296;-77
2023/05/01 05:00:38;;;;;;;22.00;12.20;;;;;;;11.03;74.53;100541.45;125068;1086;104404;-78
2023/05/01 05:03:08;;;;;;;23.83;12.43;;;;;;;11.02;74.84;100546.64;125284;1086;104407;-80
2023/05/01 05:05:37;;;;;;;25.87;13.23;;;;;;;11.04;73.58;100548.45;125218;1086;104446;-82
2023/05/01 05:08:08;;;;;;;26.57;13.33;;;;;;;11.09;73.50;100557.38;125330;1086;104283;-78
2023/05/01 05:10:39;;;;;;;25.95;12.65;;;;;;;11.12;74.59;100565.36;125237;1086;104375;-82
2023/05/01 05:13:37;;;;;;;21.03;11.93;;;;;;;11.18;74.77;100577.83;125494;1086;104276;-78
2023/05/01 05:16:29;;;;;;;25.53;12.93;;;;;;;11.26;74.11;100575.46;125319;1086;104305;-79
2023/05/01 05:18:58;;;;;;;22.53;12.50;;;;;;;11.31;74.09;100576.50;125562;1086;104321;-79
2023/05/01 05:21:28;;;;;;;24.10;12.93;;;;;;;11.37;73.80;100583.71;125309;1086;104337;-80
2023/05/01 05:23:59;;;;;;;25.33;12.57;;;;;;;11.47;73.49;100583.19;125797;1086;104241;-77
2023/05/01 05:26:28;;;;;;;22.33;12.07;;;;;;;11.56;73.75;100590.47;125309;1086;104296;-79
2023/05/01 05:28:58;;;;;;;22.40;12.20;;;;;;;11.61;73.70;100589.78;125073;1086;104348;-79
2023/05/01 05:31:27;;;;;;;22.57;11.97;;;;;;;11.67;73.26;100586.45;125019;1086;104411;-78
2023/05/01 05:33:55;;;;;;;23.87;11.83;;;;;;;11.73;73.20;100591.91;125411;1086;104363;-79
2023/05/01 05:36:27;;;;;;;22.63;12.03;;;;;;;11.80;72.73;100590.39;125491;1086;104688;-79
2023/05/01 05:38:56;;;;;;;20.23;10.97;;;;;;;11.87;73.18;100603.78;125182;1086;104286;-77
2023/05/01 05:41:25;;;;;;;22.20;11.37;;;;;;;11.94;73.08;100597.00;125208;1086;104242;-78
2023/05/01 05:43:56;;;;;;;22.10;10.77;;;;;;;12.03;73.02;100599.05;125367;1086;104459;-78
2023/05/01 05:46:25;;;;;;;22.47;11.43;;;;;;;12.14;72.68;100597.63;125037;1086;104288;-78
2023/05/01 05:48:53;;;;;;;20.45;11.30;;;;;;;12.28;72.35;100605.03;125132;1086;104235;-77
2023/05/01 05:51:22;;;;;;;20.40;10.30;;;;;;;12.41;71.70;100601.94;125394;1086;104340;-77
2023/05/01 05:53:50;;;;;;;20.93;10.27;;;;;;;12.45;71.60;100614.36;125451;1086;104488;-78
2023/05/01 05:56:19;;;;;;;20.70;9.80;;;;;;;12.48;70.67;100603.92;124970;1086;104335;-77
2023/05/01 05:58:48;;;;;;;22.07;10.30;;;;;;;12.59;71.24;100612.13;125101;1086;104231;-77
2023/05/01 06:01:17;;;;;;;20.10;9.63;;;;;;;12.71;70.49;100606.31;125068;1086;104274;-78
2023/05/01 06:03:45;;;;;;;18.60;9.67;;;;;;;12.83;69.47;100606.66;125048;1086;104340;-79
2023/05/01 06:06:14;;;;;;;21.47;10.00;;;;;;;12.94;68.95;100613.11;125212;1086;104308;-79
2023/05/01 06:08:44;;;;;;;18.10;8.90;;;;;;;13.03;68.37;100615.12;125940;1086;104315;-79
2023/05/01 06:11:14;;;;;;;19.50;9.23;;;;;;;13.16;68.43;100608.43;125675;1086;104198;-79
2023/05/01 06:13:43;;;;;;;18.10;8.40;;;;;;;13.30;68.17;100622.86;125287;1086;104344;-76
2023/05/01 06:16:12;;;;;;;19.50;8.47;;;;;;;13.34;66.73;100620.34;125070;1086;104225;-75
2023/05/01 06:18:40;;;;;;;17.70;8.33;;;;;;;13.33;66.01;100615.91;125284;1086;104364;-78
2023/05/01 06:21:09;;;;;;;16.07;8.00;;;;;;;13.41;66.26;100625.81;125532;1086;104343;-79
2023/05/01 06:23:38;;;;;;;21.07;8.13;;;;;;;13.50;64.99;100616.38;125549;1086;104308;-78
2023/05/01 06:26:25;;;;;;;17.00;7.80;;;;;;;13.50;64.87;100619.02;125215;1086;104287;-78
2023/05/01 06:28:53;;;;;;;18.00;8.25;;;;;;;13.53;65.37;100622.61;125238;1086;104287;-77
2023/05/01 06:31:22;;;;;;;17.80;8.30;;;;;;;13.56;64.83;100627.97;125057;1086;104278;-77
2023/05/01 06:33:54;;;;;;;17.17;8.13;;;;;;;13.58;64.23;100636.80;125184;1086;104318;-78
2023/05/01 06:36:49;;;;;;;17.10;7.50;;;;;;;13.54;62.81;100627.05;125290;1086;104280;-79
2023/05/01 06:39:18;;;;;;;14.07;7.03;;;;;;;13.59;62.02;100641.23;125427;1086;104265;-81
2023/05/01 06:41:47;;;;;;;16.33;7.47;;;;;;;13.47;62.30;100639.16;125385;1086;104206;-78
2023/05/01 06:44:16;;;;;;;16.07;7.53;;;;;;;13.41;63.38;100649.53;125390;1086;104320;-77
2023/05/01 06:46:44;;;;;;;16.75;7.70;;;;;;;13.34;63.09;100649.33;125169;1086;104305;-79
2023/05/01 06:49:14;;;;;;;16.80;7.17;;;;;;;13.36;62.45;100656.44;125194;1086;104388;-78
2023/05/01 06:51:42;;;;;;;16.03;7.47;;;;;;;13.47;62.84;100652.34;125340;1086;104350;-82
2023/05/01 06:54:14;;;;;;;16.03;7.23;;;;;;;13.63;62.78;100651.02;125599;1086;104625;-79
2023/05/01 06:56:42;;;;;;;14.97;7.43;;;;;;;13.83;62.68;100664.67;125420;1086;104260;-77
2023/05/01 06:59:13;;;;;;;14.53;6.70;;;;;;;14.03;61.55;100669.56;125253;1086;104422;-76
2023/05/01 07:01:42;;;;;;;17.47;6.50;;;;;;;14.18;60.22;100666.41;125369;1086;104830;-78
2023/05/01 07:04:10;;;;;;;17.10;6.50;;;;;;;14.31;61.53;100671.10;125319;1086;104391;-80
2023/05/01 07:06:39;;;;;;;13.80;6.50;;;;;;;14.45;60.09;100660.86;125220;1086;104341;-79
2023/05/01 07:09:07;;;;;;;10.03;5.70;;;;;;;14.60;59.52;100655.08;125216;1086;104318;-78
2023/05/01 07:11:37;;;;;;;12.27;5.83;;;;;;;14.79;58.33;100652.80;125250;1086;104292;-79
2023/05/01 07:14:05;;;;;;;12.33;6.70;;;;;;;14.85;55.75;100651.20;125454;1086;104366;-79
2023/05/01 07:16:34;;;;;;;14.90;5.80;;;;;;;15.02;57.14;100670.04;125223;1086;104251;-76
2023/05/01 07:19:03;;;;;;;14.27;6.00;;;;;;;15.06;56.40;100665.70;125192;1086;104213;-76
2023/05/01 07:21:32;;;;;;;11.63;5.43;;;;;;;15.22;54.08;100686.30;125270;1086;104308;-77
2023/05/01 07:24:00;;;;;;;11.70;5.50;;;;;;;15.34;56.79;100680.34;125517;1086;104334;-75
2023/05/01 07:26:29;;;;;;;11.63;5.50;;;;;;;15.40;54.03;100687.51;124955;1086;104308;-76
2023/05/01 07:28:57;;;;;;;13.37;5.17;;;;;;;15.46;53.81;100688.50;125416;1086;104225;-77
2023/05/01 07:31:26;;;;;;;10.87;5.30;;;;;;;15.52;53.91;100694.76;125230;1086;104168;-78
2023/05/01 07:33:54;;;;;;;11.77;5.10;;;;;;;15.62;54.83;100694.08;125157;1086;104298;-76
2023/05/01 07:36:23;;;;;;;10.57;5.07;;;;;;;15.73;54.71;100702.21;124942;1086;104823;-78
2023/05/01 07:38:52;;;;;;;11.10;5.10;;;;;;;15.85;54.29;100696.25;125085;1086;104366;-77
2023/05/01 07:41:21;;;;;;;12.73;5.30;;;;;;;15.84;53.22;100702.44;125237;1085;104260;-77
2023/05/01 07:43:50;;;;;;;14.87;5.10;;;;;;;15.84;54.11;100698.02;125358;1086;104334;-79
2023/05/01 07:46:21;;;;;;;11.53;4.97;;;;;;;15.87;54.03;100697.20;125351;1086;104229;-80
2023/05/01 07:48:50;;;;;;;12.30;5.07;;;;;;;15.72;52.39;100708.35;125213;1086;104238;-76
2023/05/01 07:51:18;;;;;;;10.50;4.73;;;;;;;15.64;53.53;100702.92;125135;1086;104162;-75
2023/05/01 07:53:48;;;;;;;9.23;5.23;;;;;;;15.56;53.04;100704.55;124975;1086;104392;-76
2023/05/01 07:56:16;;;;;;;16.43;5.17;;;;;;;15.55;52.89;100710.69;125062;1086;104159;-76
2023/05/01 07:58:45;;;;;;;12.67;5.07;;;;;;;15.41;52.31;100713.98;125171;1086;104267;-76
2023/05/01 08:01:13;;;;;;;9.83;4.60;;;;;;;15.32;52.06;100716.44;125145;1085;104409;-77
2023/05/01 08:03:42;;;;;;;14.07;5.17;;;;;;;15.19;52.65;100719.69;125111;1086;104229;-76
2023/05/01 08:06:10;;;;;;;7.47;4.33;;;;;;;15.12;53.38;100701.94;125045;1085;104228;-77
2023/05/01 08:08:39;;;;;;;13.50;4.83;;;;;;;14.99;53.19;100717.54;125392;1086;104231;-78
2023/05/01 08:11:08;;;;;;;12.23;4.80;;;;;;;14.91;52.93;100712.09;125290;1086;104433;-76
2023/05/01 08:13:37;;;;;;;15.30;4.53;;;;;;;14.88;52.76;100713.75;125096;1086;104367;-77
2023/05/01 08:16:06;;;;;;;10.63;4.50;;;;;;;14.85;53.07;100716.33;125200;1086;104347;-77
2023/05/01 08:18:35;;;;;;;11.43;4.97;;;;;;;14.87;52.77;100735.77;125371;1086;104706;-75
2023/05/01 08:21:03;;;;;;;10.60;4.50;;;;;;;14.84;52.45;100733.06;125096;1086;104228;-76
2023/05/01 08:23:33;;;;;;;9.83;4.93;;;;;;;14.84;51.40;100723.38;125022;1086;104363;-75
2023/05/01 08:26:01;;;;;;;10.13;4.80;;;;;;;14.90;52.01;100725.27;125133;1086;104405;-77
2023/05/01 08:28:30;;;;;;;11.80;4.93;;;;;;;15.02;51.72;100732.55;124887;1086;104363;-77
2023/05/01 08:30:58;;;;;;;8.67;5.00;;;;;;;15.18;51.68;100733.78;125282;1086;104305;-77
2023/05/01 08:33:27;;;;;;;10.50;4.47;;;;;;;15.37;51.58;100730.63;125713;1086;104145;-77
2023/05/01 08:35:55;;;;;;;12.87;4.60;;;;;;;15.52;51.11;100723.85;125956;1086;102223;-79
2023/05/01 08:38:24;;;;;;;11.53;4.63;;;;;;;15.67;50.31;100728.55;125625;1086;104338;-75
2023/05/01 08:40:55;;;;;;;13.77;4.93;;;;;;;15.78;50.59;100740.24;125535;1086;104280;-76
2023/05/01 08:43:26;;;;;;;9.00;4.70;;;;;;;15.90;51.18;100732.53;125848;1086;104206;-77
2023/05/01 08:45:57;;;;;;;13.37;4.40;;;;;;;16.04;49.79;100735.42;126012;1085;104153;-77
2023/05/01 08:48:27;;;;;;;13.50;5.00;;;;;;;16.13;48.12;100739.98;125598;1085;104378;-77
2023/05/01 08:50:58;;;;;;;12.13;4.70;;;;;;;16.23;49.51;100728.66;125513;1086;104369;-78
2023/05/01 08:53:31;;;;;;;9.60;4.27;;;;;;;16.34;49.48;100729.72;126128;1086;104202;-76
2023/05/01 08:56:00;;;;;;;9.43;4.20;;;;;;;16.37;46.95;100739.48;125950;1086;104238;-76
2023/05/01 08:58:29;;;;;;;10.07;4.43;;;;;;;16.39;47.06;100736.86;125945;1086;104168;-77
2023/05/01 09:01:00;;;;;;;8.73;3.90;;;;;;;16.25;46.91;100744.58;125682;1086;104289;-75
2023/05/01 09:03:30;;;;;;;10.33;4.10;;;;;;;16.36;46.55;100737.69;126486;1086;104334;-77
2023/05/01 09:06:02;;;;;;;8.40;3.93;;;;;;;16.41;47.48;100733.38;125711;1086;104255;-76
2023/05/01 09:08:30;;;;;;;10.77;3.90;;;;;;;16.53;46.09;100740.59;125566;1085;104319;-77
2023/05/01 09:11:00;;;;;;;9.53;3.80;;;;;;;16.48;45.78;100745.83;125252;1086;104299;-77
2023/05/01 09:13:29;;;;;;;7.23;3.70;;;;;;;16.52;45.83;100750.31;125296;1086;104373;-77
2023/05/01 09:15:59;;;;;;;11.03;3.80;;;;;;;16.42;44.52;100755.44;125251;1086;104379;-75
2023/05/01 09:18:28;;;;;;;7.40;4.10;;;;;;;16.37;44.95;100747.42;125230;1085;104357;-77
2023/05/01 09:20:56;;;;;;;5.77;3.83;;;;;;;16.44;45.85;100743.11;125311;1086;104290;-77
2023/05/01 09:23:25;;;;;;;8.30;4.07;;;;;;;16.54;45.19;100742.39;125381;1086;104357;-77
2023/05/01 09:25:54;;;;;;;10.77;3.80;;;;;;;16.61;44.56;100754.88;125244;1086;104303;-76
2023/05/01 09:28:41;;;;;;;9.43;3.67;;;;;;;16.57;44.56;100747.73;125128;1086;104324;-77
2023/05/01 09:31:23;;;;;;;9.05;4.00;;;;;;;16.61;43.62;100746.02;125276;1086;104361;-78
2023/05/01 09:33:56;;;;;;;11.43;3.63;;;;;;;16.60;41.37;100763.68;125495;1086;104299;-78
2023/05/01 09:36:26;;;;;;;8.30;3.70;;;;;;;16.46;40.91;100760.81;125425;1086;104215;-75
2023/05/01 09:38:55;;;;;;;7.20;3.45;;;;;;;16.49;42.69;100750.27;125276;1086;104330;-77
2023/05/01 09:41:23;;;;;;;9.20;3.43;;;;;;;16.53;42.43;100746.81;125022;1086;104251;-76
2023/05/01 09:43:53;;;;;;;7.17;3.37;;;;;;;16.54;40.86;100752.98;124988;1086;104254;-75
2023/05/01 09:46:23;;;;;;;4.97;3.10;;;;;;;16.51;42.67;100742.34;124991;1086;104273;-77
2023/05/01 09:48:57;;;;;;;6.90;3.20;;;;;;;16.61;41.77;100746.02;125153;1086;104202;-77
2023/05/01 09:51:27;;;;;;;6.87;2.93;;;;;;;16.61;41.20;100748.66;125048;1086;104290;-76
2023/05/01 09:53:57;;;;;;;4.93;3.00;;;;;;;16.70;41.21;100747.06;125385;1086;104369;-78
2023/05/01 09:56:27;;;;;;;4.67;2.97;;;;;;;16.75;41.05;100768.33;125417;1086;104225;-77
2023/05/01 09:58:57;;;;;;;10.73;3.73;;;;;;;16.74;42.05;100745.34;125346;1086;104258;-78
2023/05/01 10:01:44;;;;;;;6.40;3.15;;;;;;;16.70;38.34;100744.41;125610;1086;104215;-78
2023/05/01 10:04:13;;;;;;;5.87;3.10;;;;;;;16.81;39.13;100733.97;125279;1086;104282;-79
2023/05/01 10:06:42;;;;;;;4.90;3.00;;;;;;;16.92;40.16;100738.55;125308;1086;104447;-78
2023/05/01 10:09:15;;;;;;;8.10;2.65;;;;;;;16.97;39.52;100739.48;125319;1086;104341;-78
2023/05/01 10:11:50;;;;;;;;;;;;;;;16.97;39.36;100742.13;125340;1086;104286;-79
2023/05/01 10:14:20;;;;;;;6.37;2.60;;;;;;;16.99;39.54;100730.69;125349;1086;104334;-78
2023/05/01 10:16:51;;;;;;;4.63;2.40;;;;;;;17.07;40.24;100744.05;125459;1085;104371;-79
2023/05/01 10:19:20;;;;;;;5.43;2.50;;;;;;;17.11;39.87;100744.97;125243;1086;104293;-77
2023/05/01 10:21:49;;;;;;;5.90;2.60;;;;;;;17.10;39.13;100746.73;125395;1086;104229;-78
2023/05/01 10:24:17;;;;;;;6.57;2.90;;;;;;;17.16;39.28;100743.28;125314;1086;104346;-77
2023/05/01 10:26:49;;;;;;;5.35;2.70;;;;;;;17.14;37.51;100753.88;125319;1085;104286;-77
2023/05/01 10:29:20;;;;;;;8.43;2.80;;;;;;;17.11;38.55;100748.53;125292;1086;104232;-77
2023/05/01 10:31:49;;;;;;;6.23;2.70;;;;;;;17.14;38.57;100743.27;125192;1086;104369;-76
2023/05/01 10:34:20;;;;;;;5.80;3.00;;;;;;;17.24;38.63;100745.14;125219;1086;104395;-78
2023/05/01 10:36:56;;;;;;;5.33;2.80;;;;;;;17.34;38.37;100737.30;125098;1086;104263;-76
2023/05/01 10:39:31;;;;;;;7.93;2.80;;;;;;;17.36;37.33;100743.53;125133;1086;104229;-77
2023/05/01 10:42:04;;;;;;;5.00;2.30;;;;;;;17.38;36.54;100733.82;125294;1086;104229;-76
2023/05/01 10:44:34;;;;;;;6.70;2.27;;;;;;;17.38;37.48;100736.47;125675;1086;104276;-79
2023/05/01 10:47:34;;;;;;;6.90;3.00;;;;;;;17.39;36.69;100740.88;125677;1086;104421;-79
2023/05/01 10:50:08;;;;;;;7.23;2.90;;;;;;;17.44;36.75;100744.50;125018;1086;104210;-76
2023/05/01 10:53:18;;;;;;;7.77;3.37;;;;;;;17.48;35.59;100743.64;125170;1086;104330;-78
2023/05/01 10:55:48;;;;;;;5.63;3.10;;;;;;;17.43;34.22;100735.63;125457;1086;104232;-79
2023/05/01 10:58:50;;;;;;;7.35;3.10;;;;;;;17.45;34.14;100750.69;125600;1086;104308;-77
2023/05/01 11:01:32;;;;;;;4.50;2.10;;;;;;;17.32;33.10;100737.28;125477;1086;104239;-80
2023/05/01 11:04:03;;;;;;;2.63;2.30;;;;;;;17.39;32.91;100751.50;125613;1086;104257;-78
2023/05/01 11:06:32;;;;;;;6.03;2.03;;;;;;;17.44;33.82;100744.50;125686;1086;104369;-78
2023/05/01 11:09:01;;;;;;;3.90;2.40;;;;;;;17.50;32.46;100747.23;125658;1086;104251;-77
2023/05/01 11:11:48;;;;;;;4.10;2.20;;;;;;;17.52;31.62;100749.90;125682;1086;104271;-78
2023/05/01 11:14:18;;;;;;;2.17;1.80;;;;;;;17.54;33.49;100730.45;125508;1086;104232;-78
2023/05/01 11:16:48;;;;;;;4.20;2.27;;;;;;;17.54;33.00;100754.33;125378;1086;104307;-76
2023/05/01 11:19:49;;;;;;;4.67;2.13;;;;;;;17.54;33.03;100751.67;125137;1086;104366;-78
2023/05/01 11:22:18;;;;;;;4.63;1.80;;;;;;;17.50;31.11;100757.84;125201;1086;104636;-77
2023/05/01 11:24:48;;;;;;;3.40;1.90;;;;;;;17.56;30.82;100754.34;125094;1085;104370;-75